EETN/TLL METAR and TAF weather

Enter ICAO airport designator
Station Type Date Time Source
EETN METAR 2018/12/10 19:20 UTC NOAA

EETN 101920Z 11007KT 9999 OVC005 01/00 Q1000 R08/290195 NOSIG


Station Type Date Time Source
EETN Decoded METAR 2018/12/10 19:20 UTC NOAA

Tallinn, Estonia (EETN) 59-24N 024-49E 34M
Dec 10, 2018 - 02:20 PM EST / 2018.12.10 1920 UTC
Wind: from the ESE (110 degrees) at 8 MPH (7 KT):0
Visibility: greater than 7 mile(s):0
Sky conditions: overcast
Temperature: 33 F (1 C)
Windchill: 26 F (-3 C):1
Dew Point: 32 F (0 C)
Relative Humidity: 93%
Pressure (altimeter): 29.53 in. Hg (1000 hPa)
ob: EETN 101920Z 11007KT 9999 OVC005 01/00 Q1000 R08/290195 NOSIG
cycle: 19

Station Type Date Time Source
EETN TAF 2018/12/10 18:03 UTC NOAA

TAF TAF EETN 101700Z 1018/1118 10008KT 4000 SNRA BR OVC003
TEMPO 1018/1106 1000 SN BR OVC002
BECMG 1106/1108 8000 BKN006 SCT012CB
TEMPO 1108/1118 3000 SHSNRA
BECMG 1110/1112 04013KT


Example: see airport list